Time;durP1;ratioP1;P1;durP2;ratioP2;P2;SDS_P1;SDS_P2;PMS_P1;PMS_P2;Temp;Humidity;BMP_temperature;BMP_pressure;BME280_temperature;BME280_humidity;BME280_pressure;Samples;Min_cycle;Max_cycle;Signal;HPM_P1;HPM_P2
2024/01/22 00:01:23;;;;;;;;;;;;;;;;;;8437004;28;19947;-80
2024/01/22 00:05:25;;;;;;;;;;;;;;;;;;8437178;28;19936;-79
2024/01/22 00:14:18;;;;;;;;;;;;;;;;;;8436596;28;19919;-79
2024/01/22 00:18:21;;;;;;;;;;;;;;;;;;8436665;28;20444;-79
2024/01/22 00:22:23;;;;;;;;;;;;;;;;;;8431973;28;19920;-79
2024/01/22 00:26:25;;;;;;;;;;;;;;;;;;8427273;28;20008;-79
2024/01/22 00:30:27;;;;;;;;;;;;;;;;;;8436185;28;20011;-79
2024/01/22 00:34:30;;;;;;;;;;;;;;;;;;8435970;28;19919;-79
2024/01/22 00:38:32;;;;;;;;;;;;;;;;;;8435896;28;20461;-79
2024/01/22 00:42:34;;;;;;;;;;;;;;;;;;8435698;28;19920;-79
2024/01/22 00:47:06;;;;;;;;;;;;;;;;;;8418603;28;20277;-79
2024/01/22 00:51:10;;;;;;;;;;;;;;;;;;8429768;28;19920;-79
2024/01/22 00:55:12;;;;;;;;;;;;;;;;;;8427537;28;20381;-79
2024/01/22 00:59:13;;;;;;;;;;;;;;;;;;8416117;28;19927;-79
2024/01/22 01:03:15;;;;;;;;;;;;;;;;;;8414259;28;19927;-79
2024/01/22 01:07:19;;;;;;;;;;;;;;;;;;8401255;28;19986;-80
2024/01/22 01:11:21;;;;;;;;;;;;;;;;;;8434773;28;19970;-79
2024/01/22 01:15:24;;;;;;;;;;;;;;;;;;8434867;28;19971;-79
2024/01/22 01:19:26;;;;;;;;;;;;;;;;;;8427802;28;19926;-80
2024/01/22 01:23:29;;;;;;;;;;;;;;;;;;8427939;28;19920;-79
2024/01/22 01:27:31;;;;;;;;;;;;;;;;;;8434678;28;20443;-79
2024/01/22 01:31:33;;;;;;;;;;;;;;;;;;8434289;28;19931;-79
2024/01/22 01:35:34;;;;;;;;;;;;;;;;;;8434365;28;20281;-79
2024/01/22 01:39:38;;;;;;;;;;;;;;;;;;8421467;28;19920;-79
2024/01/22 01:43:39;;;;;;;;;;;;;;;;;;8413859;28;20380;-79
2024/01/22 01:47:42;;;;;;;;;;;;;;;;;;8426405;28;19920;-79
2024/01/22 01:51:44;;;;;;;;;;;;;;;;;;8416783;28;19974;-79
2024/01/22 01:55:47;;;;;;;;;;;;;;;;;;8400090;28;20403;-79
2024/01/22 01:59:52;;;;;;;;;;;;;;;;;;8400209;28;19974;-79
2024/01/22 02:03:53;;;;;;;;;;;;;;;;;;8412004;28;19920;-80
2024/01/22 02:07:56;;;;;;;;;;;;;;;;;;8420776;28;19921;-79
2024/01/22 02:12:07;;;;;;;;;;;;;;;;;;8404980;28;20340;-80
2024/01/22 02:16:11;;;;;;;;;;;;;;;;;;8423155;28;20018;-80
2024/01/22 02:20:14;;;;;;;;;;;;;;;;;;8407936;28;19920;-80
2024/01/22 02:24:17;;;;;;;;;;;;;;;;;;8424120;28;19927;-80
2024/01/22 02:28:19;;;;;;;;;;;;;;;;;;8398999;28;19943;-80
2024/01/22 02:32:21;;;;;;;;;;;;;;;;;;8424213;28;19927;-80
2024/01/22 02:36:23;;;;;;;;;;;;;;;;;;8419021;28;20373;-80
2024/01/22 02:40:26;;;;;;;;;;;;;;;;;;8415772;28;19919;-80
2024/01/22 02:44:28;;;;;;;;;;;;;;;;;;8431606;28;19959;-80
2024/01/22 02:48:30;;;;;;;;;;;;;;;;;;8404689;28;19920;-80
2024/01/22 02:52:32;;;;;;;;;;;;;;;;;;8431770;28;19920;-80
2024/01/22 02:56:35;;;;;;;;;;;;;;;;;;8431682;28;19920;-80
2024/01/22 03:00:37;;;;;;;;;;;;;;;;;;8431525;28;19920;-80
2024/01/22 03:04:39;;;;;;;;;;;;;;;;;;8431417;28;19920;-80
2024/01/22 03:08:40;;;;;;;;;;;;;;;;;;8431224;28;19920;-80
2024/01/22 03:12:44;;;;;;;;;;;;;;;;;;8431072;28;19920;-80
2024/01/22 03:16:46;;;;;;;;;;;;;;;;;;8417463;28;20027;-80
2024/01/22 03:20:47;;;;;;;;;;;;;;;;;;8430948;28;19927;-80
2024/01/22 03:24:49;;;;;;;;;;;;;;;;;;8431017;28;19924;-80
2024/01/22 03:28:53;;;;;;;;;;;;;;;;;;8412911;28;19973;-79
2024/01/22 03:32:54;;;;;;;;;;;;;;;;;;8421863;28;20091;-79
2024/01/22 03:36:56;;;;;;;;;;;;;;;;;;8429804;28;20390;-79
2024/01/22 03:40:58;;;;;;;;;;;;;;;;;;8430554;28;19926;-80
2024/01/22 03:45:01;;;;;;;;;;;;;;;;;;8412767;28;19920;-80
2024/01/22 03:49:37;;;;;;;;;;;;;;;;;;8397333;28;20372;-80
2024/01/22 03:53:39;;;;;;;;;;;;;;;;;;8410499;28;19920;-80
2024/01/22 03:57:41;;;;;;;;;;;;;;;;;;8412215;28;19920;-80
2024/01/22 04:01:44;;;;;;;;;;;;;;;;;;8416995;28;19920;-79
2024/01/22 04:05:46;;;;;;;;;;;;;;;;;;8430159;28;19927;-80
2024/01/22 04:09:48;;;;;;;;;;;;;;;;;;8430404;28;20495;-80
2024/01/22 04:13:49;;;;;;;;;;;;;;;;;;8430753;28;19924;-80
2024/01/22 04:17:53;;;;;;;;;;;;;;;;;;8411177;28;19966;-80
2024/01/22 04:21:55;;;;;;;;;;;;;;;;;;8411041;28;20026;-80
2024/01/22 04:25:56;;;;;;;;;;;;;;;;;;8420126;28;20334;-80
2024/01/22 04:29:58;;;;;;;;;;;;;;;;;;8409691;28;19927;-80
2024/01/22 04:34:09;;;;;;;;;;;;;;;;;;8403624;28;19993;-80
2024/01/22 04:38:11;;;;;;;;;;;;;;;;;;8429720;28;19970;-80
2024/01/22 04:42:18;;;;;;;;;;;;;;;;;;8421453;28;20372;-80
2024/01/22 04:46:19;;;;;;;;;;;;;;;;;;8430922;28;20380;-80
2024/01/22 04:50:23;;;;;;;;;;;;;;;;;;8435503;28;20369;-80
2024/01/22 04:54:34;;;;;;;;;;;;;;;;;;8434862;28;20743;-80
2024/01/22 04:58:36;;;;;;;;;;;;;;;;;;8435143;28;19920;-80
2024/01/22 05:02:39;;;;;;;;;;;;;;;;;;8421255;28;19920;-80
2024/01/22 05:06:42;;;;;;;;;;;;;;;;;;8434372;28;19930;-80
2024/01/22 05:10:44;;;;;;;;;;;;;;;;;;8433999;28;20398;-80
2024/01/22 05:14:46;;;;;;;;;;;;;;;;;;8434870;28;20035;-80
2024/01/22 05:18:48;;;;;;;;;;;;;;;;;;8421336;28;19920;-79
2024/01/22 05:22:51;;;;;;;;;;;;;;;;;;8420985;28;20445;-79
2024/01/22 05:26:57;;;;;;;;;;;;;;;;;;8434176;28;20443;-79
2024/01/22 05:30:59;;;;;;;;;;;;;;;;;;8434425;28;20402;-80
2024/01/22 05:35:01;;;;;;;;;;;;;;;;;;8432404;28;19919;-79
2024/01/22 05:39:05;;;;;;;;;;;;;;;;;;8422412;28;19977;-79
2024/01/22 05:43:07;;;;;;;;;;;;;;;;;;8434111;28;19965;-79
2024/01/22 05:47:09;;;;;;;;;;;;;;;;;;8433746;28;19920;-79
2024/01/22 05:51:11;;;;;;;;;;;;;;;;;;8432806;28;19920;-79
2024/01/22 05:55:14;;;;;;;;;;;;;;;;;;8399539;28;19920;-79
2024/01/22 05:59:16;;;;;;;;;;;;;;;;;;8413896;28;19920;-79
2024/01/22 06:03:18;;;;;;;;;;;;;;;;;;8432969;28;19919;-79
2024/01/22 06:07:20;;;;;;;;;;;;;;;;;;8432775;28;20078;-81
2024/01/22 06:11:23;;;;;;;;;;;;;;;;;;8430589;28;19927;-79
2024/01/22 06:15:24;;;;;;;;;;;;;;;;;;8426004;28;19925;-79
2024/01/22 06:19:26;;;;;;;;;;;;;;;;;;8426847;28;19952;-79
2024/01/22 06:23:28;;;;;;;;;;;;;;;;;;8420210;28;19977;-80
2024/01/22 06:27:53;;;;;;;;;;;;;;;;;;8418226;28;19920;-80
2024/01/22 06:31:56;;;;;;;;;;;;;;;;;;8398454;28;19931;-79
2024/01/22 06:35:58;;;;;;;;;;;;;;;;;;8420508;28;19927;-79
2024/01/22 06:40:00;;;;;;;;;;;;;;;;;;8415931;28;20407;-79
2024/01/22 06:44:02;;;;;;;;;;;;;;;;;;8432134;28;19926;-79
2024/01/22 06:48:06;;;;;;;;;;;;;;;;;;8431635;28;20027;-79
2024/01/22 06:52:10;;;;;;;;;;;;;;;;;;8431723;28;19920;-79
2024/01/22 07:00:51;;;;;;;;;;;;;;;;;;8431289;28;19927;-79
2024/01/22 07:04:55;;;;;;;;;;;;;;;;;;8431188;28;19970;-80
2024/01/22 07:08:57;;;;;;;;;;;;;;;;;;8430733;28;20057;-80
2024/01/22 07:12:59;;;;;;;;;;;;;;;;;;8413309;28;20373;-80
2024/01/22 07:17:03;;;;;;;;;;;;;;;;;;8420263;28;20457;-80
2024/01/22 07:21:06;;;;;;;;;;;;;;;;;;8431093;28;19967;-79
2024/01/22 07:25:09;;;;;;;;;;;;;;;;;;8431058;28;19920;-79
2024/01/22 07:29:12;;;;;;;;;;;;;;;;;;8430788;28;20046;-80
2024/01/22 07:33:14;;;;;;;;;;;;;;;;;;8431049;28;19943;-79
2024/01/22 07:37:17;;;;;;;;;;;;;;;;;;8430967;28;19923;-79
2024/01/22 07:41:19;;;;;;;;;;;;;;;;;;8430625;28;20247;-80
2024/01/22 07:45:21;;;;;;;;;;;;;;;;;;8430546;28;20352;-79
2024/01/22 07:49:23;;;;;;;;;;;;;;;;;;8416994;28;19927;-79
2024/01/22 07:53:26;;;;;;;;;;;;;;;;;;8418422;28;19952;-80
2024/01/22 07:57:28;;;;;;;;;;;;;;;;;;8423013;28;19928;-80
2024/01/22 08:01:30;;;;;;;;;;;;;;;;;;8422246;28;19920;-80
2024/01/22 08:05:32;;;;;;;;;;;;;;;;;;8430298;28;20277;-80
2024/01/22 08:09:35;;;;;;;;;;;;;;;;;;8430280;28;20007;-80
2024/01/22 08:13:38;;;;;;;;;;;;;;;;;;8418873;28;19952;-81
2024/01/22 08:17:41;;;;;;;;;;;;;;;;;;8399667;28;19920;-80
2024/01/22 08:21:43;;;;;;;;;;;;;;;;;;8424206;28;19920;-80
2024/01/22 08:25:46;;;;;;;;;;;;;;;;;;8436235;28;19920;-80
2024/01/22 08:29:48;;;;;;;;;;;;;;;;;;8415737;28;20014;-80
2024/01/22 08:33:50;;;;;;;;;;;;;;;;;;8414154;28;19942;-80
2024/01/22 08:37:53;;;;;;;;;;;;;;;;;;8417401;28;19927;-80
2024/01/22 08:41:56;;;;;;;;;;;;;;;;;;8418569;28;19956;-80
2024/01/22 08:45:58;;;;;;;;;;;;;;;;;;8420301;28;19924;-81
2024/01/22 08:50:01;;;;;;;;;;;;;;;;;;8428223;28;19923;-80
2024/01/22 08:54:03;;;;;;;;;;;;;;;;;;8413344;28;19920;-81
2024/01/22 08:58:06;;;;;;;;;;;;;;;;;;8410112;28;20330;-80
2024/01/22 09:02:08;;;;;;;;;;;;;;;;;;8401082;28;20387;-80
2024/01/22 09:06:10;;;;;;;;;;;;;;;;;;8400788;28;20282;-80
2024/01/22 09:10:12;;;;;;;;;;;;;;;;;;8401065;28;19921;-81
2024/01/22 09:14:16;;;;;;;;;;;;;;;;;;8400689;28;19920;-81
2024/01/22 09:18:18;;;;;;;;;;;;;;;;;;8422533;28;20313;-81
2024/01/22 09:22:21;;;;;;;;;;;;;;;;;;8420606;28;20285;-81
2024/01/22 09:26:23;;;;;;;;;;;;;;;;;;8418080;28;19920;-80
2024/01/22 09:30:26;;;;;;;;;;;;;;;;;;8418628;28;19920;-80
2024/01/22 09:34:35;;;;;;;;;;;;;;;;;;8421328;28;19969;-81
2024/01/22 09:38:39;;;;;;;;;;;;;;;;;;8419494;28;20443;-81
2024/01/22 09:42:41;;;;;;;;;;;;;;;;;;8433379;28;19980;-81
2024/01/22 09:46:45;;;;;;;;;;;;;;;;;;8432715;28;19920;-81
2024/01/22 09:50:50;;;;;;;;;;;;;;;;;;8433310;28;19924;-81
2024/01/22 09:54:53;;;;;;;;;;;;;;;;;;8433070;28;20319;-81
2024/01/22 09:58:59;;;;;;;;;;;;;;;;;;8432622;28;20403;-82
2024/01/22 10:03:03;;;;;;;;;;;;;;;;;;8432612;28;19927;-81
2024/01/22 10:07:06;;;;;;;;;;;;;;;;;;8432480;28;19927;-81
2024/01/22 10:11:09;;;;;;;;;;;;;;;;;;8432490;28;19920;-81
2024/01/22 10:15:13;;;;;;;;;;;;;;;;;;8432609;28;19920;-81
2024/01/22 10:19:17;;;;;;;;;;;;;;;;;;8432738;28;19920;-81
2024/01/22 10:23:20;;;;;;;;;;;;;;;;;;8432249;28;19920;-81
2024/01/22 10:27:22;;;;;;;;;;;;;;;;;;8432348;28;20329;-81
2024/01/22 10:31:27;;;;;;;;;;;;;;;;;;8432235;28;19920;-81
2024/01/22 10:35:32;;;;;;;;;;;;;;;;;;8432247;28;19927;-81
2024/01/22 10:39:34;;;;;;;;;;;;;;;;;;8432259;28;20323;-81
2024/01/22 10:43:36;;;;;;;;;;;;;;;;;;8431783;28;20611;-81
2024/01/22 10:47:39;;;;;;;;;;;;;;;;;;8431577;28;19930;-82
2024/01/22 10:51:42;;;;;;;;;;;;;;;;;;8430287;28;19946;-81
2024/01/22 10:55:49;;;;;;;;;;;;;;;;;;8430671;28;19959;-81
2024/01/22 10:59:52;;;;;;;;;;;;;;;;;;8427764;28;19931;-81
2024/01/22 11:04:22;;;;;;;;;;;;;;;;;;8429471;28;20022;-80
2024/01/22 11:08:27;;;;;;;;;;;;;;;;;;8431087;28;19946;-81
2024/01/22 11:12:33;;;;;;;;;;;;;;;;;;8431495;28;19920;-83
2024/01/22 11:21:39;;;;;;;;;;;;;;;;;;8397034;28;20016;-81
2024/01/22 11:25:43;;;;;;;;;;;;;;;;;;8410990;28;19920;-81
2024/01/22 11:29:44;;;;;;;;;;;;;;;;;;8398968;28;20015;-81
2024/01/22 11:34:06;;;;;;;;;;;;;;;;;;8409049;28;20011;-81
2024/01/22 11:38:11;;;;;;;;;;;;;;;;;;8394997;28;19924;-81
2024/01/22 11:42:26;;;;;;;;;;;;;;;;;;8394981;28;20308;-81
2024/01/22 11:46:27;;;;;;;;;;;;;;;;;;8395032;28;20451;-82
2024/01/22 11:50:29;;;;;;;;;;;;;;;;;;8394642;28;20415;-81
2024/01/22 11:54:31;;;;;;;;;;;;;;;;;;8401154;28;19997;-81
2024/01/22 11:58:35;;;;;;;;;;;;;;;;;;8429397;28;19923;-81
2024/01/22 12:02:38;;;;;;;;;;;;;;;;;;8436456;28;19920;-81
2024/01/22 12:06:47;;;;;;;;;;;;;;;;;;8443774;28;19920;-81
2024/01/22 12:11:08;;;;;;;;;;;;;;;;;;8468711;28;19923;-81
2024/01/22 12:15:11;;;;;;;;;;;;;;;;;;8470653;28;20303;-81
2024/01/22 12:19:27;;;;;;;;;;;;;;;;;;8470425;28;20038;-81
2024/01/22 12:23:30;;;;;;;;;;;;;;;;;;8463931;28;20018;-80
2024/01/22 12:27:32;;;;;;;;;;;;;;;;;;8406556;28;19925;-81
2024/01/22 12:31:35;;;;;;;;;;;;;;;;;;8433658;28;19927;-82
2024/01/22 12:35:42;;;;;;;;;;;;;;;;;;8409748;28;19924;-80
2024/01/22 12:40:05;;;;;;;;;;;;;;;;;;8419639;28;19924;-81
2024/01/22 12:44:07;;;;;;;;;;;;;;;;;;8431494;28;20026;-81
2024/01/22 12:48:19;;;;;;;;;;;;;;;;;;8408319;28;20499;-81
2024/01/22 12:52:22;;;;;;;;;;;;;;;;;;8411268;28;20384;-81
2024/01/22 12:56:24;;;;;;;;;;;;;;;;;;8424854;28;19920;-81
2024/01/22 13:00:25;;;;;;;;;;;;;;;;;;8419612;28;19920;-81
2024/01/22 13:04:29;;;;;;;;;;;;;;;;;;8401671;28;20437;-81
2024/01/22 13:08:31;;;;;;;;;;;;;;;;;;8423972;28;19923;-81
2024/01/22 13:12:32;;;;;;;;;;;;;;;;;;8416904;28;20005;-82
2024/01/22 13:16:40;;;;;;;;;;;;;;;;;;8418037;28;19920;-82
2024/01/22 13:20:44;;;;;;;;;;;;;;;;;;8409787;28;19920;-81
2024/01/22 13:24:45;;;;;;;;;;;;;;;;;;8416998;28;20296;-83
2024/01/22 13:28:47;;;;;;;;;;;;;;;;;;8418070;28;19931;-82
2024/01/22 13:32:49;;;;;;;;;;;;;;;;;;8414947;28;20657;-82
2024/01/22 13:36:52;;;;;;;;;;;;;;;;;;8425485;28;19969;-83
2024/01/22 13:40:54;;;;;;;;;;;;;;;;;;8416066;28;20399;-82
2024/01/22 13:44:56;;;;;;;;;;;;;;;;;;8413618;28;19920;-82
2024/01/22 13:48:58;;;;;;;;;;;;;;;;;;8421919;28;19935;-82
2024/01/22 13:53:02;;;;;;;;;;;;;;;;;;8405039;28;19928;-82
2024/01/22 13:57:04;;;;;;;;;;;;;;;;;;8405208;28;20442;-82
2024/01/22 14:01:07;;;;;;;;;;;;;;;;;;8425306;28;19932;-81
2024/01/22 14:05:10;;;;;;;;;;;;;;;;;;8410997;28;19920;-82
2024/01/22 14:09:14;;;;;;;;;;;;;;;;;;8417036;28;19927;-82
2024/01/22 14:13:16;;;;;;;;;;;;;;;;;;8415121;28;19920;-82
2024/01/22 14:17:18;;;;;;;;;;;;;;;;;;8411832;28;19924;-82
2024/01/22 14:21:20;;;;;;;;;;;;;;;;;;8426181;28;19920;-82
2024/01/22 14:25:24;;;;;;;;;;;;;;;;;;8414246;28;20022;-81
2024/01/22 14:29:26;;;;;;;;;;;;;;;;;;8398583;28;20327;-82
2024/01/22 14:33:36;;;;;;;;;;;;;;;;;;8409034;28;19974;-81
2024/01/22 14:37:38;;;;;;;;;;;;;;;;;;8414838;28;20301;-81
2024/01/22 14:41:48;;;;;;;;;;;;;;;;;;8428248;28;19920;-81
2024/01/22 14:45:50;;;;;;;;;;;;;;;;;;8422476;28;19921;-81
2024/01/22 14:49:54;;;;;;;;;;;;;;;;;;8410449;28;20017;-81
2024/01/22 14:53:56;;;;;;;;;;;;;;;;;;8404201;28;19942;-81
2024/01/22 14:57:59;;;;;;;;;;;;;;;;;;8424785;28;20296;-81
2024/01/22 15:02:01;;;;;;;;;;;;;;;;;;8410758;28;20468;-81
2024/01/22 15:06:03;;;;;;;;;;;;;;;;;;8411350;28;19927;-81
2024/01/22 15:10:07;;;;;;;;;;;;;;;;;;8415782;28;19920;-81
2024/01/22 15:14:15;;;;;;;;;;;;;;;;;;8426900;28;20364;-81
2024/01/22 15:18:17;;;;;;;;;;;;;;;;;;8430466;28;19962;-81
2024/01/22 15:22:19;;;;;;;;;;;;;;;;;;8412650;28;19920;-81
2024/01/22 15:26:22;;;;;;;;;;;;;;;;;;8407774;28;19967;-82
2024/01/22 15:30:25;;;;;;;;;;;;;;;;;;8401086;28;19928;-81
2024/01/22 15:34:27;;;;;;;;;;;;;;;;;;8413326;28;20049;-81
2024/01/22 15:38:36;;;;;;;;;;;;;;;;;;8403799;28;20019;-81
2024/01/22 15:42:38;;;;;;;;;;;;;;;;;;8396441;28;20389;-81
2024/01/22 15:46:41;;;;;;;;;;;;;;;;;;8402293;28;19920;-81
2024/01/22 15:50:43;;;;;;;;;;;;;;;;;;8411419;28;20277;-81
2024/01/22 15:54:45;;;;;;;;;;;;;;;;;;8424032;28;19920;-81
2024/01/22 15:58:48;;;;;;;;;;;;;;;;;;8416265;28;19948;-81
2024/01/22 16:03:19;;;;;;;;;;;;;;;;;;8416057;28;19920;-81
2024/01/22 16:07:22;;;;;;;;;;;;;;;;;;8415830;28;20015;-81
2024/01/22 16:11:24;;;;;;;;;;;;;;;;;;8404620;28;20379;-81
2024/01/22 16:15:26;;;;;;;;;;;;;;;;;;8416311;28;19966;-81
2024/01/22 16:19:28;;;;;;;;;;;;;;;;;;8426886;28;20579;-82
2024/01/22 16:23:31;;;;;;;;;;;;;;;;;;8410278;28;19920;-82
2024/01/22 16:27:33;;;;;;;;;;;;;;;;;;8429386;28;19955;-81
2024/01/22 16:31:35;;;;;;;;;;;;;;;;;;8401074;28;19920;-81
2024/01/22 16:35:38;;;;;;;;;;;;;;;;;;8409139;28;19966;-81
2024/01/22 16:39:41;;;;;;;;;;;;;;;;;;8414040;28;20380;-81
2024/01/22 16:43:43;;;;;;;;;;;;;;;;;;8433796;28;19959;-81
2024/01/22 16:47:45;;;;;;;;;;;;;;;;;;8406919;28;20016;-81
2024/01/22 16:51:46;;;;;;;;;;;;;;;;;;8400560;28;20450;-81
2024/01/22 16:55:50;;;;;;;;;;;;;;;;;;8426267;28;19920;-81
2024/01/22 16:59:51;;;;;;;;;;;;;;;;;;8434593;28;19919;-81
2024/01/22 17:03:53;;;;;;;;;;;;;;;;;;8421385;28;19930;-81
2024/01/22 17:07:55;;;;;;;;;;;;;;;;;;8420779;28;20295;-81
2024/01/22 17:11:58;;;;;;;;;;;;;;;;;;8420700;28;20375;-81
2024/01/22 17:16:04;;;;;;;;;;;;;;;;;;8434320;28;20002;-82
2024/01/22 17:20:08;;;;;;;;;;;;;;;;;;8430686;28;20284;-81
2024/01/22 17:24:10;;;;;;;;;;;;;;;;;;8426669;28;19920;-81
2024/01/22 17:28:13;;;;;;;;;;;;;;;;;;8410421;28;20046;-81
2024/01/22 17:32:15;;;;;;;;;;;;;;;;;;8413431;28;19924;-81
2024/01/22 17:36:17;;;;;;;;;;;;;;;;;;8400307;28;19947;-80
2024/01/22 17:40:19;;;;;;;;;;;;;;;;;;8400252;28;19993;-81
2024/01/22 17:44:22;;;;;;;;;;;;;;;;;;8399858;28;19950;-81
2024/01/22 17:48:24;;;;;;;;;;;;;;;;;;8399851;28;19928;-81
2024/01/22 17:52:26;;;;;;;;;;;;;;;;;;8400912;28;20359;-81
2024/01/22 17:56:47;;;;;;;;;;;;;;;;;;8399778;28;20372;-81
2024/01/22 18:00:51;;;;;;;;;;;;;;;;;;8402530;28;20325;-81
2024/01/22 18:04:53;;;;;;;;;;;;;;;;;;8408937;28;19921;-80
2024/01/22 18:08:54;;;;;;;;;;;;;;;;;;8403661;28;19927;-80
2024/01/22 18:12:56;;;;;;;;;;;;;;;;;;8399477;28;19924;-81
2024/01/22 18:17:00;;;;;;;;;;;;;;;;;;8399018;28;19920;-81
2024/01/22 18:21:02;;;;;;;;;;;;;;;;;;8398794;28;19921;-81
2024/01/22 18:25:04;;;;;;;;;;;;;;;;;;8398869;28;20285;-81
2024/01/22 18:29:06;;;;;;;;;;;;;;;;;;8398706;28;19920;-81
2024/01/22 18:33:09;;;;;;;;;;;;;;;;;;8414314;28;19920;-80
2024/01/22 18:37:11;;;;;;;;;;;;;;;;;;8398361;28;19935;-80
2024/01/22 18:41:20;;;;;;;;;;;;;;;;;;8398378;28;20015;-80
2024/01/22 18:45:22;;;;;;;;;;;;;;;;;;8397949;28;19970;-79
2024/01/22 18:49:25;;;;;;;;;;;;;;;;;;8398186;28;19952;-80
2024/01/22 18:53:27;;;;;;;;;;;;;;;;;;8397764;28;20015;-80
2024/01/22 18:57:29;;;;;;;;;;;;;;;;;;8397570;28;20376;-80
2024/01/22 19:01:31;;;;;;;;;;;;;;;;;;8397175;28;19920;-80
2024/01/22 19:05:49;;;;;;;;;;;;;;;;;;8396725;28;20022;-80
2024/01/22 19:09:51;;;;;;;;;;;;;;;;;;8398195;28;19920;-80
2024/01/22 19:13:53;;;;;;;;;;;;;;;;;;8397878;28;19924;-80
2024/01/22 19:17:55;;;;;;;;;;;;;;;;;;8397835;28;19928;-80
2024/01/22 19:21:58;;;;;;;;;;;;;;;;;;8397764;28;20300;-80
2024/01/22 19:26:01;;;;;;;;;;;;;;;;;;8397805;28;19927;-80
2024/01/22 19:30:31;;;;;;;;;;;;;;;;;;8397640;28;19930;-81
2024/01/22 19:34:33;;;;;;;;;;;;;;;;;;8396757;28;19920;-81
2024/01/22 19:38:36;;;;;;;;;;;;;;;;;;8396705;28;20304;-81
2024/01/22 19:42:41;;;;;;;;;;;;;;;;;;8397413;28;20292;-78
2024/01/22 19:46:43;;;;;;;;;;;;;;;;;;8397218;28;19921;-78
2024/01/22 19:50:46;;;;;;;;;;;;;;;;;;8397303;28;19927;-78
2024/01/22 19:54:49;;;;;;;;;;;;;;;;;;8397333;28;20475;-78
2024/01/22 19:58:51;;;;;;;;;;;;;;;;;;8397241;28;20391;-79
2024/01/22 20:02:53;;;;;;;;;;;;;;;;;;8397222;28;20396;-79
2024/01/22 20:06:56;;;;;;;;;;;;;;;;;;8396840;28;20043;-79
2024/01/22 20:11:23;;;;;;;;;;;;;;;;;;8397005;28;19920;-79
2024/01/22 20:15:27;;;;;;;;;;;;;;;;;;8401636;28;19927;-80
2024/01/22 20:19:29;;;;;;;;;;;;;;;;;;8403394;28;19921;-80
2024/01/22 20:23:30;;;;;;;;;;;;;;;;;;8403267;28;19920;-80
2024/01/22 20:27:37;;;;;;;;;;;;;;;;;;8402994;28;19920;-80
2024/01/22 20:31:40;;;;;;;;;;;;;;;;;;8402955;28;19946;-81
2024/01/22 20:35:44;;;;;;;;;;;;;;;;;;8403236;28;19920;-80
2024/01/22 20:39:46;;;;;;;;;;;;;;;;;;8402099;28;20292;-81
2024/01/22 20:43:51;;;;;;;;;;;;;;;;;;8402531;28;19920;-82
2024/01/22 20:47:58;;;;;;;;;;;;;;;;;;8402380;28;19920;-80
2024/01/22 20:52:05;;;;;;;;;;;;;;;;;;8402359;28;20319;-80
2024/01/22 20:56:07;;;;;;;;;;;;;;;;;;8402327;28;19924;-80
2024/01/22 21:00:09;;;;;;;;;;;;;;;;;;8402003;28;19929;-80
2024/01/22 21:04:38;;;;;;;;;;;;;;;;;;8401582;28;19943;-80
2024/01/22 21:08:41;;;;;;;;;;;;;;;;;;8378223;28;19921;-80
2024/01/22 21:12:43;;;;;;;;;;;;;;;;;;8368531;28;19924;-80
2024/01/22 21:16:46;;;;;;;;;;;;;;;;;;8368564;28;19931;-81
2024/01/22 21:20:49;;;;;;;;;;;;;;;;;;8368189;28;19920;-80
2024/01/22 21:24:53;;;;;;;;;;;;;;;;;;8366912;28;19927;-80
2024/01/22 21:28:54;;;;;;;;;;;;;;;;;;8368041;28;19970;-80
2024/01/22 21:32:58;;;;;;;;;;;;;;;;;;8368014;28;19927;-80
2024/01/22 21:36:59;;;;;;;;;;;;;;;;;;8367702;28;20023;-79
2024/01/22 21:41:03;;;;;;;;;;;;;;;;;;8367772;28;20307;-79
2024/01/22 21:45:06;;;;;;;;;;;;;;;;;;8367481;28;19920;-79
2024/01/22 21:49:08;;;;;;;;;;;;;;;;;;8367480;28;19920;-79
2024/01/22 21:53:10;;;;;;;;;;;;;;;;;;8367364;28;20297;-79
2024/01/22 21:57:13;;;;;;;;;;;;;;;;;;8367048;28;19928;-80
2024/01/22 22:01:15;;;;;;;;;;;;;;;;;;8367146;28;19925;-79
2024/01/22 22:05:18;;;;;;;;;;;;;;;;;;8366795;28;19946;-79
2024/01/22 22:09:20;;;;;;;;;;;;;;;;;;8395448;28;19921;-80
2024/01/22 22:13:23;;;;;;;;;;;;;;;;;;8399886;28;19974;-79
2024/01/22 22:17:25;;;;;;;;;;;;;;;;;;8399704;28;20013;-79
2024/01/22 22:21:27;;;;;;;;;;;;;;;;;;8399091;28;19920;-80
2024/01/22 22:25:29;;;;;;;;;;;;;;;;;;8398556;28;19928;-79
2024/01/22 22:29:32;;;;;;;;;;;;;;;;;;8414621;28;19956;-79
2024/01/22 22:33:34;;;;;;;;;;;;;;;;;;8399097;28;20338;-79
2024/01/22 22:37:35;;;;;;;;;;;;;;;;;;8398855;28;20304;-79
2024/01/22 22:41:40;;;;;;;;;;;;;;;;;;8398902;28;19943;-79
2024/01/22 22:45:43;;;;;;;;;;;;;;;;;;8398581;28;19920;-79
2024/01/22 22:49:45;;;;;;;;;;;;;;;;;;8398867;28;20394;-79
2024/01/22 22:53:47;;;;;;;;;;;;;;;;;;8398070;28;19970;-79
2024/01/22 22:57:52;;;;;;;;;;;;;;;;;;8398382;28;20442;-79
2024/01/22 23:01:55;;;;;;;;;;;;;;;;;;8398367;28;19931;-78
2024/01/22 23:05:57;;;;;;;;;;;;;;;;;;8398050;28;19920;-78
2024/01/22 23:09:59;;;;;;;;;;;;;;;;;;8398196;28;19920;-78
2024/01/22 23:14:08;;;;;;;;;;;;;;;;;;8397987;28;19920;-78
2024/01/22 23:18:12;;;;;;;;;;;;;;;;;;8397964;28;19928;-78
2024/01/22 23:22:14;;;;;;;;;;;;;;;;;;8397873;28;19943;-78
2024/01/22 23:26:15;;;;;;;;;;;;;;;;;;8397750;28;19924;-78
2024/01/22 23:30:17;;;;;;;;;;;;;;;;;;8414348;28;19924;-79
2024/01/22 23:34:20;;;;;;;;;;;;;;;;;;8397770;28;20030;-79
2024/01/22 23:38:32;;;;;;;;;;;;;;;;;;8397673;28;19920;-79
2024/01/22 23:42:34;;;;;;;;;;;;;;;;;;8397538;28;19920;-79
2024/01/22 23:46:36;;;;;;;;;;;;;;;;;;8397257;28;19924;-79
2024/01/22 23:50:39;;;;;;;;;;;;;;;;;;8402585;28;19927;-78
2024/01/22 23:54:41;;;;;;;;;;;;;;;;;;8404184;28;19920;-79
2024/01/22 23:58:44;;;;;;;;;;;;;;;;;;8404053;28;20015;-79
